createdAt,value
2022-08-14T00:00:38.878Z,10.89
2022-08-14T00:01:38.840Z,7.50
2022-08-14T00:02:38.720Z,10.00
2022-08-14T00:03:40.753Z,8.30
2022-08-14T00:04:42.480Z,8.39
2022-08-14T00:05:38.489Z,8.00
2022-08-14T00:06:38.408Z,9.80
2022-08-14T00:07:42.002Z,11.10
2022-08-14T00:08:43.718Z,8.80
2022-08-14T00:09:39.570Z,10.19
2022-08-14T00:10:51.726Z,8.50
2022-08-14T00:11:38.016Z,10.10
2022-08-14T00:12:39.286Z,9.60
2022-08-14T00:13:37.869Z,11.60
2022-08-14T00:14:37.795Z,8.69
2022-08-14T00:15:44.122Z,8.69
2022-08-14T00:16:40.958Z,11.80
2022-08-14T00:17:37.997Z,11.19
2022-08-14T00:19:06.328Z,10.19
2022-08-14T00:19:37.428Z,9.19
2022-08-14T00:20:42.958Z,7.90
2022-08-14T00:21:37.281Z,10.69
2022-08-14T00:22:56.758Z,10.00
2022-08-14T00:23:37.130Z,10.19
2022-08-14T00:24:37.054Z,10.89
2022-08-14T00:25:42.418Z,10.10
2022-08-14T00:26:36.898Z,12.10
2022-08-14T00:27:38.008Z,9.80
2022-08-14T00:28:37.177Z,9.89
2022-08-14T00:29:40.621Z,10.30
2022-08-14T00:30:36.597Z,11.60
2022-08-14T00:31:45.662Z,10.39
2022-08-14T00:32:50.533Z,10.69
2022-08-14T00:33:49.210Z,10.39
2022-08-14T00:34:46.436Z,12.80
2022-08-14T00:36:35.716Z,9.19
2022-08-14T00:36:48.571Z,11.39
2022-08-14T00:37:36.076Z,8.89
2022-08-14T00:38:35.994Z,10.10
2022-08-14T00:39:35.998Z,10.60
2022-08-14T00:40:35.868Z,11.69
2022-08-14T00:41:35.780Z,9.39
2022-08-14T00:42:54.811Z,11.10
2022-08-14T00:43:35.633Z,11.30
2022-08-14T00:44:35.566Z,10.30
2022-08-14T00:45:35.493Z,10.50
2022-08-14T00:46:35.437Z,9.69
2022-08-14T00:47:43.053Z,10.00
2022-08-14T00:48:36.976Z,11.60
2022-08-14T00:49:37.747Z,10.19
2022-08-14T00:50:35.130Z,9.89
2022-08-14T00:51:37.908Z,10.89
2022-08-14T00:52:34.989Z,12.60
2022-08-14T00:53:34.918Z,10.10
2022-08-14T00:54:34.847Z,14.69
2022-08-14T00:55:35.958Z,11.00
2022-08-14T00:56:34.704Z,10.10
2022-08-14T00:57:34.635Z,11.69
2022-08-14T00:58:34.565Z,11.89
2022-08-14T00:59:34.494Z,11.89
2022-08-14T01:00:43.124Z,10.39
2022-08-14T01:01:35.451Z,12.19
2022-08-14T01:02:34.285Z,14.39
2022-08-14T01:03:34.213Z,11.00
2022-08-14T01:04:51.545Z,11.19
2022-08-14T01:05:41.776Z,10.89
2022-08-14T01:06:34.295Z,11.69
2022-08-14T01:07:38.716Z,12.30
2022-08-14T01:08:57.733Z,11.19
2022-08-14T01:09:34.780Z,11.60
2022-08-14T01:10:38.345Z,11.39
2022-08-14T01:11:36.278Z,9.60
2022-08-14T01:12:33.560Z,10.00
2022-08-14T01:13:42.172Z,15.89
2022-08-14T01:14:34.433Z,9.89
2022-08-14T01:15:58.244Z,10.19
2022-08-14T01:16:33.288Z,12.00
2022-08-14T01:17:33.221Z,10.60
2022-08-14T01:18:33.151Z,11.69
2022-08-14T01:19:33.079Z,10.60
2022-08-14T01:20:33.006Z,11.80
2022-08-14T01:21:34.638Z,11.80
2022-08-14T01:22:32.859Z,13.00
2022-08-14T01:23:41.738Z,9.69
2022-08-14T01:24:34.577Z,10.60
2022-08-14T01:25:32.654Z,9.69
2022-08-14T01:26:35.011Z,10.69
2022-08-14T01:27:52.494Z,12.69
2022-08-14T01:28:47.017Z,14.69
2022-08-14T01:29:59.121Z,13.39
2022-08-14T01:30:37.914Z,15.50
2022-08-14T01:31:32.239Z,13.80
2022-08-14T01:32:37.459Z,10.19
2022-08-14T01:33:39.590Z,10.19
2022-08-14T01:35:20.488Z,11.60
2022-08-14T01:36:03.718Z,11.50
2022-08-14T01:36:32.911Z,11.39
2022-08-14T01:37:31.832Z,10.19
2022-08-14T01:38:31.764Z,15.30
2022-08-14T01:39:32.256Z,11.69
2022-08-14T01:40:33.098Z,14.50
2022-08-14T01:41:31.719Z,10.10
2022-08-14T01:42:36.185Z,12.19
2022-08-14T01:43:31.438Z,12.00
2022-08-14T01:44:34.086Z,9.19
2022-08-14T01:45:40.780Z,11.19
2022-08-14T01:46:33.441Z,12.60
2022-08-14T01:47:33.534Z,10.19
2022-08-14T01:48:31.106Z,12.30
2022-08-14T01:49:35.191Z,9.80
2022-08-14T01:50:33.790Z,11.19
2022-08-14T01:51:30.912Z,10.60
2022-08-14T01:52:34.165Z,12.50
2022-08-14T01:53:31.539Z,10.39
2022-08-14T01:54:38.179Z,10.00
2022-08-14T01:55:30.771Z,9.80
2022-08-14T01:56:30.643Z,11.60
2022-08-14T01:57:49.223Z,11.19
2022-08-14T01:58:30.468Z,11.30
2022-08-14T01:59:37.549Z,12.50
2022-08-14T02:00:31.000Z,11.30
2022-08-14T02:01:30.395Z,9.50
2022-08-14T02:02:30.239Z,12.69
2022-08-14T02:03:30.859Z,10.30
2022-08-14T02:04:55.171Z,12.60
2022-08-14T02:05:35.524Z,11.30
2022-08-14T02:06:33.315Z,10.39
2022-08-14T02:07:44.853Z,10.30
2022-08-14T02:08:35.126Z,11.89
2022-08-14T02:09:29.799Z,12.10
2022-08-14T02:10:29.746Z,11.69
2022-08-14T02:11:29.670Z,13.19
2022-08-14T02:12:29.610Z,11.30
2022-08-14T02:13:29.547Z,12.00
2022-08-14T02:14:31.729Z,10.69
2022-08-14T02:15:29.423Z,12.69
2022-08-14T02:16:29.364Z,9.89
2022-08-14T02:17:29.300Z,11.00
2022-08-14T02:18:29.237Z,9.89
2022-08-14T02:19:29.174Z,11.80
2022-08-14T02:20:29.117Z,10.60
2022-08-14T02:21:29.052Z,12.30
2022-08-14T02:22:33.102Z,15.30
2022-08-14T02:23:32.595Z,13.19
2022-08-14T02:24:40.377Z,13.19
2022-08-14T02:25:30.003Z,11.80
2022-08-14T02:26:29.264Z,12.00
2022-08-14T02:28:24.454Z,10.89
2022-08-14T02:28:57.617Z,12.50
2022-08-14T02:29:59.250Z,10.39
2022-08-14T02:30:31.338Z,10.30
2022-08-14T02:31:42.388Z,11.69
2022-08-14T02:32:36.153Z,12.19
2022-08-14T02:33:29.607Z,12.50
2022-08-14T02:34:28.255Z,13.30
2022-08-14T02:35:32.973Z,11.89
2022-08-14T02:37:03.832Z,12.30
2022-08-14T02:37:46.998Z,13.19
2022-08-14T02:38:30.005Z,12.39
2022-08-14T02:39:28.022Z,13.30
2022-08-14T02:40:32.424Z,9.50
2022-08-14T02:41:28.926Z,12.89
2022-08-14T02:42:37.258Z,13.30
2022-08-14T02:43:36.479Z,10.39
2022-08-14T02:44:29.927Z,10.19
2022-08-14T02:45:32.830Z,11.69
2022-08-14T02:46:32.015Z,10.69
2022-08-14T02:47:27.490Z,13.00
2022-08-14T02:49:02.468Z,10.60
2022-08-14T02:49:34.014Z,12.19
2022-08-14T02:50:27.382Z,10.80
2022-08-14T02:51:30.487Z,12.00
2022-08-14T02:52:57.444Z,11.00
2022-08-14T02:53:27.142Z,11.39
2022-08-14T02:54:27.090Z,10.30
2022-08-14T02:55:27.038Z,13.60
2022-08-14T02:57:14.382Z,13.19
2022-08-14T02:57:40.387Z,13.50
2022-08-14T02:58:30.273Z,12.00
2022-08-14T02:59:26.811Z,11.60
2022-08-14T03:00:27.198Z,10.39
2022-08-14T03:01:31.465Z,10.39
2022-08-14T03:02:49.553Z,11.50
2022-08-14T03:03:26.597Z,12.50
2022-08-14T03:04:26.536Z,14.80
2022-08-14T03:05:26.479Z,12.39
2022-08-14T03:06:35.161Z,12.60
2022-08-14T03:07:27.382Z,12.69
2022-08-14T03:08:26.315Z,11.10
2022-08-14T03:09:41.691Z,10.50
2022-08-14T03:10:32.342Z,11.69
2022-08-14T03:11:27.160Z,11.39
2022-08-14T03:12:30.926Z,13.30
2022-08-14T03:13:26.039Z,12.50
2022-08-14T03:14:27.600Z,12.39
2022-08-14T03:15:25.937Z,12.10
2022-08-14T03:16:26.864Z,12.10
2022-08-14T03:17:25.834Z,13.50
2022-08-14T03:18:31.423Z,12.69
2022-08-14T03:19:25.729Z,10.80
2022-08-14T03:20:25.681Z,11.89
2022-08-14T03:21:25.626Z,13.00
2022-08-14T03:22:27.625Z,13.89
2022-08-14T03:23:25.522Z,12.69
2022-08-14T03:24:25.466Z,15.50
2022-08-14T03:25:25.418Z,14.69
2022-08-14T03:26:29.848Z,13.10
2022-08-14T03:27:26.556Z,13.30
2022-08-14T03:28:29.545Z,13.19
2022-08-14T03:29:26.365Z,13.69
2022-08-14T03:30:25.151Z,12.30
2022-08-14T03:31:27.936Z,11.69
2022-08-14T03:32:30.283Z,13.10
2022-08-14T03:33:24.983Z,12.30
2022-08-14T03:34:47.603Z,12.69
2022-08-14T03:35:24.885Z,10.80
2022-08-14T03:37:37.590Z,12.50
2022-08-14T03:37:39.154Z,14.39
2022-08-14T03:39:13.948Z,12.50
2022-08-14T03:39:27.573Z,13.60
2022-08-14T03:40:24.628Z,13.60
2022-08-14T03:41:24.576Z,12.19
2022-08-14T03:42:24.525Z,12.39
2022-08-14T03:43:24.464Z,12.89
2022-08-14T03:45:19.256Z,11.69
2022-08-14T03:45:35.347Z,11.50
2022-08-14T03:46:46.653Z,11.89
2022-08-14T03:47:24.233Z,14.30
2022-08-14T03:48:30.269Z,11.89
2022-08-14T03:49:28.394Z,13.50
2022-08-14T03:50:30.786Z,12.69
2022-08-14T03:51:24.005Z,12.69
2022-08-14T03:52:40.572Z,12.60
2022-08-14T03:53:23.891Z,10.10
2022-08-14T03:54:23.835Z,13.60
2022-08-14T03:55:23.779Z,14.50
2022-08-14T03:56:23.725Z,12.60
2022-08-14T03:57:23.877Z,13.69
2022-08-14T03:58:36.468Z,13.10
2022-08-14T03:59:23.563Z,14.00
2022-08-14T04:00:40.596Z,12.50
2022-08-14T04:01:23.524Z,13.69
2022-08-14T04:02:32.361Z,12.30
2022-08-14T04:03:24.506Z,12.50
2022-08-14T04:04:23.298Z,11.10
2022-08-14T04:05:23.282Z,14.00
2022-08-14T04:06:28.390Z,14.00
2022-08-14T04:07:23.143Z,16.00
2022-08-14T04:08:30.748Z,14.60
2022-08-14T04:09:23.041Z,14.30
2022-08-14T04:10:26.295Z,14.10
2022-08-14T04:11:22.933Z,13.19
2022-08-14T04:12:35.534Z,13.39
2022-08-14T04:13:23.807Z,14.10
2022-08-14T04:14:22.770Z,12.69
2022-08-14T04:15:23.582Z,13.60
2022-08-14T04:16:22.659Z,12.10
2022-08-14T04:17:22.600Z,12.89
2022-08-14T04:18:22.539Z,13.10
2022-08-14T04:19:22.480Z,14.19
2022-08-14T04:20:25.431Z,12.69
2022-08-14T04:21:22.367Z,12.10
2022-08-14T04:22:22.521Z,12.80
2022-08-14T04:23:23.698Z,13.39
2022-08-14T04:24:22.199Z,13.00
2022-08-14T04:25:22.137Z,13.50
2022-08-14T04:26:27.308Z,10.80
2022-08-14T04:27:22.030Z,13.89
2022-08-14T04:29:05.439Z,12.39
2022-08-14T04:29:22.935Z,12.00
2022-08-14T04:30:24.966Z,12.50
2022-08-14T04:32:56.443Z,13.10
2022-08-14T04:32:58.485Z,14.10
2022-08-14T04:33:22.074Z,12.69
2022-08-14T04:34:27.106Z,13.10
2022-08-14T04:35:23.680Z,13.30
2022-08-14T04:36:21.543Z,12.50
2022-08-14T04:37:24.918Z,13.10
2022-08-14T04:38:36.425Z,10.30
2022-08-14T04:39:21.429Z,12.10
2022-08-14T04:40:21.330Z,12.89
2022-08-14T04:41:21.279Z,14.10
2022-08-14T04:42:21.222Z,13.00
2022-08-14T04:43:21.168Z,11.60
2022-08-14T04:44:26.631Z,13.00
2022-08-14T04:45:21.057Z,11.00
2022-08-14T04:46:55.999Z,12.69
2022-08-14T04:47:20.942Z,13.19
2022-08-14T04:48:38.911Z,12.30
2022-08-14T04:49:20.820Z,12.80
2022-08-14T04:50:33.872Z,11.60
2022-08-14T04:51:21.704Z,11.50
2022-08-14T04:52:23.336Z,14.39
2022-08-14T04:53:23.244Z,13.00
2022-08-14T04:54:20.507Z,11.19
2022-08-14T04:55:20.444Z,13.19
2022-08-14T04:56:31.645Z,12.60
2022-08-14T04:57:20.308Z,11.80
2022-08-14T04:58:21.791Z,13.39
2022-08-14T04:59:20.171Z,13.10
2022-08-14T05:00:20.104Z,13.89
2022-08-14T05:01:20.039Z,12.50
2022-08-14T05:02:20.101Z,13.19
2022-08-14T05:03:19.904Z,12.89
2022-08-14T05:04:20.739Z,9.80
2022-08-14T05:05:19.774Z,11.80
2022-08-14T05:06:35.097Z,12.69
2022-08-14T05:07:19.640Z,10.89
2022-08-14T05:08:31.817Z,10.19
2022-08-14T05:09:19.503Z,11.69
2022-08-14T05:10:21.844Z,12.89
2022-08-14T05:11:19.910Z,10.50
2022-08-14T05:13:13.680Z,13.19
2022-08-14T05:13:19.269Z,11.19
2022-08-14T05:14:45.701Z,11.80
2022-08-14T05:15:20.116Z,11.80
2022-08-14T05:16:19.034Z,10.30
2022-08-14T05:17:18.961Z,11.19
2022-08-14T05:18:52.942Z,10.60
2022-08-14T05:19:27.373Z,10.69
2022-08-14T05:21:04.894Z,16.79
2022-08-14T05:21:59.993Z,11.10
2022-08-14T05:22:19.600Z,12.30
2022-08-14T05:23:18.510Z,9.30
2022-08-14T05:24:18.936Z,12.60
2022-08-14T05:25:18.365Z,13.69
2022-08-14T05:26:18.293Z,10.10
2022-08-14T05:27:18.210Z,10.89
2022-08-14T05:28:18.132Z,13.30
2022-08-14T05:29:18.059Z,12.30
2022-08-14T05:30:17.981Z,10.50
2022-08-14T05:31:20.689Z,9.89
2022-08-14T05:32:17.893Z,10.39
2022-08-14T05:33:17.749Z,8.80
2022-08-14T05:34:17.671Z,10.00
2022-08-14T05:35:17.593Z,10.69
2022-08-14T05:36:17.510Z,11.19
2022-08-14T05:37:17.430Z,10.19
2022-08-14T05:38:30.609Z,12.00
2022-08-14T05:39:17.303Z,9.89
2022-08-14T05:40:17.168Z,12.60
2022-08-14T05:41:17.082Z,10.69
2022-08-14T05:42:22.381Z,9.89
2022-08-14T05:43:16.911Z,10.19
2022-08-14T05:44:16.824Z,11.89
2022-08-14T05:45:16.740Z,10.30
2022-08-14T05:46:16.655Z,9.19
2022-08-14T05:47:16.571Z,14.19
2022-08-14T05:48:23.470Z,12.19
2022-08-14T05:49:16.393Z,10.80
2022-08-14T05:50:18.487Z,9.00
2022-08-14T05:51:16.223Z,10.19
2022-08-14T05:52:17.951Z,12.80
2022-08-14T05:53:16.037Z,12.89
2022-08-14T05:54:27.066Z,10.39
2022-08-14T05:55:16.711Z,8.89
2022-08-14T05:56:15.753Z,9.30
2022-08-14T05:57:15.657Z,10.19
2022-08-14T05:58:15.558Z,10.80
2022-08-14T05:59:16.753Z,9.10
2022-08-14T06:00:24.430Z,11.39
2022-08-14T06:01:15.325Z,9.80
2022-08-14T06:02:15.182Z,10.60
2022-08-14T06:03:15.090Z,12.69
2022-08-14T06:04:14.990Z,8.80
2022-08-14T06:05:14.892Z,9.39
2022-08-14T06:06:14.789Z,11.39
2022-08-14T06:07:14.688Z,10.00
2022-08-14T06:08:35.447Z,8.80
2022-08-14T06:09:14.483Z,10.00
2022-08-14T06:10:14.385Z,11.10
2022-08-14T06:11:14.853Z,15.39
2022-08-14T06:12:14.181Z,13.69
2022-08-14T06:13:14.076Z,10.39
2022-08-14T06:14:20.988Z,9.00
2022-08-14T06:15:13.866Z,7.69
2022-08-14T06:16:13.764Z,9.69
2022-08-14T06:17:15.734Z,11.10
2022-08-14T06:18:13.555Z,9.80
2022-08-14T06:19:18.406Z,10.39
2022-08-14T06:20:13.341Z,9.69
2022-08-14T06:21:13.705Z,7.80
2022-08-14T06:22:13.130Z,13.10
2022-08-14T06:23:13.017Z,10.39
2022-08-14T06:24:18.062Z,9.50
2022-08-14T06:25:12.801Z,9.89
2022-08-14T06:26:12.689Z,11.19
2022-08-14T06:27:12.581Z,10.19
2022-08-14T06:28:27.314Z,10.10
2022-08-14T06:29:12.355Z,9.39
2022-08-14T06:30:12.243Z,11.80
2022-08-14T06:31:12.130Z,9.60
2022-08-14T06:32:36.626Z,8.60
2022-08-14T06:33:11.904Z,10.30
2022-08-14T06:35:02.761Z,10.19
2022-08-14T06:35:13.451Z,13.00
2022-08-14T06:36:11.570Z,9.10
2022-08-14T06:37:11.460Z,9.30
2022-08-14T06:38:16.737Z,11.69
2022-08-14T06:39:11.215Z,8.50
2022-08-14T06:40:25.568Z,7.69
2022-08-14T06:41:11.064Z,8.10
2022-08-14T06:42:32.617Z,10.89
2022-08-14T06:43:10.735Z,9.19
2022-08-14T06:44:10.614Z,8.69
2022-08-14T06:45:10.497Z,8.89
2022-08-14T06:46:22.309Z,8.10
2022-08-14T06:47:10.235Z,9.10
2022-08-14T06:48:12.754Z,9.60
2022-08-14T06:49:09.977Z,11.69
2022-08-14T06:50:09.850Z,9.00
2022-08-14T06:51:09.719Z,9.10
2022-08-14T06:52:09.592Z,8.50
2022-08-14T06:53:09.466Z,9.80
2022-08-14T06:54:09.331Z,9.19
2022-08-14T06:55:09.199Z,7.00
2022-08-14T06:56:09.070Z,9.39
2022-08-14T06:57:08.940Z,10.89
2022-08-14T06:58:08.806Z,11.89
2022-08-14T06:59:08.680Z,8.89
2022-08-14T07:00:08.542Z,8.30
2022-08-14T07:01:08.434Z,10.00
2022-08-14T07:02:13.120Z,10.39
2022-08-14T07:03:08.133Z,8.60
2022-08-14T07:04:12.838Z,9.60
2022-08-14T07:05:07.873Z,10.00
2022-08-14T07:06:21.278Z,8.80
2022-08-14T07:07:07.603Z,8.80
2022-08-14T07:08:07.465Z,11.19
2022-08-14T07:09:07.323Z,9.69
2022-08-14T07:10:07.182Z,9.19
2022-08-14T07:11:07.046Z,9.80
2022-08-14T07:12:06.908Z,9.00
2022-08-14T07:13:07.137Z,9.10
2022-08-14T07:14:06.631Z,9.39
2022-08-14T07:15:06.494Z,10.00
2022-08-14T07:16:06.345Z,10.19
2022-08-14T07:17:06.196Z,10.30
2022-08-14T07:18:08.626Z,11.00
2022-08-14T07:19:05.893Z,9.00
2022-08-14T07:20:05.741Z,9.69
2022-08-14T07:21:05.591Z,9.10
2022-08-14T07:22:05.757Z,9.00
2022-08-14T07:23:09.274Z,7.19
2022-08-14T07:24:06.223Z,9.00
2022-08-14T07:25:04.991Z,9.80
2022-08-14T07:26:04.840Z,10.60
2022-08-14T07:27:04.686Z,8.19
2022-08-14T07:28:04.535Z,7.69
2022-08-14T07:29:04.376Z,9.10
2022-08-14T07:30:04.224Z,9.00
2022-08-14T07:31:04.360Z,10.10
2022-08-14T07:32:03.905Z,10.00
2022-08-14T07:33:03.757Z,9.10
2022-08-14T07:34:04.156Z,9.89
2022-08-14T07:35:03.436Z,9.00
2022-08-14T07:36:03.431Z,8.00
2022-08-14T07:37:03.114Z,8.60
2022-08-14T07:38:02.949Z,7.80
2022-08-14T07:39:12.416Z,8.80
2022-08-14T07:40:03.751Z,8.39
2022-08-14T07:41:02.453Z,8.10
2022-08-14T07:42:02.289Z,9.19
2022-08-14T07:43:14.840Z,9.89
2022-08-14T07:44:29.260Z,8.39
2022-08-14T07:45:01.794Z,11.60
2022-08-14T07:46:01.620Z,8.50
2022-08-14T07:47:01.452Z,8.10
2022-08-14T07:48:01.281Z,8.10
2022-08-14T07:49:01.143Z,7.30
2022-08-14T07:50:00.936Z,11.00
2022-08-14T07:51:03.841Z,7.30
2022-08-14T07:52:00.592Z,9.00
2022-08-14T07:53:00.439Z,8.69
2022-08-14T07:54:00.237Z,7.59
2022-08-14T07:55:00.063Z,9.39
2022-08-14T07:56:08.964Z,9.00
2022-08-14T07:57:00.639Z,8.19
2022-08-14T07:58:05.958Z,7.69
2022-08-14T07:58:59.330Z,8.10
2022-08-14T07:59:59.142Z,9.80
2022-08-14T08:00:59.548Z,8.19
2022-08-14T08:01:58.765Z,8.19
2022-08-14T08:02:58.575Z,8.10
2022-08-14T08:03:59.413Z,6.40
2022-08-14T08:04:59.267Z,9.60
2022-08-14T08:05:58.003Z,8.69
2022-08-14T08:06:57.809Z,9.30
2022-08-14T08:07:57.617Z,7.90
2022-08-14T08:09:00.954Z,8.39
2022-08-14T08:09:57.234Z,7.19
2022-08-14T08:11:01.898Z,8.30
2022-08-14T08:11:57.412Z,7.40
2022-08-14T08:12:56.641Z,10.19
2022-08-14T08:13:56.448Z,8.89
2022-08-14T08:15:03.239Z,8.39
2022-08-14T08:15:56.046Z,8.69
2022-08-14T08:16:55.844Z,8.69
2022-08-14T08:18:01.269Z,8.50
2022-08-14T08:18:59.960Z,7.19
2022-08-14T08:19:55.224Z,6.69
2022-08-14T08:20:55.018Z,9.19
2022-08-14T08:21:54.813Z,7.19
2022-08-14T08:22:55.943Z,10.00
2022-08-14T08:23:54.383Z,7.09
2022-08-14T08:24:54.169Z,9.60
2022-08-14T08:25:54.167Z,8.39
2022-08-14T08:26:53.742Z,6.50
2022-08-14T08:27:53.529Z,7.69
2022-08-14T08:28:53.321Z,8.19
2022-08-14T08:29:53.089Z,7.30
2022-08-14T08:30:52.876Z,8.60
2022-08-14T08:31:52.666Z,8.00
2022-08-14T08:32:52.445Z,7.50
2022-08-14T08:33:52.225Z,9.69
2022-08-14T08:34:52.014Z,9.10
2022-08-14T08:35:51.794Z,8.60
2022-08-14T08:36:51.600Z,9.30
2022-08-14T08:37:53.714Z,8.69
2022-08-14T08:39:17.617Z,7.80
2022-08-14T08:40:01.872Z,7.90
2022-08-14T08:40:51.765Z,8.10
2022-08-14T08:41:53.401Z,7.19
2022-08-14T08:42:52.031Z,8.30
2022-08-14T08:43:51.183Z,7.50
2022-08-14T08:44:49.757Z,9.10
2022-08-14T08:45:49.528Z,6.59
2022-08-14T08:46:49.301Z,7.59
2022-08-14T08:47:49.066Z,8.80
2022-08-14T08:48:52.119Z,6.80
2022-08-14T08:49:59.528Z,8.00
2022-08-14T08:50:49.314Z,6.59
2022-08-14T08:51:48.126Z,7.59
2022-08-14T08:52:51.434Z,6.40
2022-08-14T08:53:47.655Z,7.69
2022-08-14T08:54:47.415Z,7.00
2022-08-14T08:55:47.178Z,9.60
2022-08-14T08:56:46.983Z,8.80
2022-08-14T08:57:46.704Z,7.50
2022-08-14T08:58:46.462Z,8.39
2022-08-14T08:59:46.219Z,8.89
2022-08-14T09:00:46.015Z,7.30
2022-08-14T09:01:45.741Z,7.59
2022-08-14T09:02:45.702Z,7.80
2022-08-14T09:03:45.250Z,9.69
2022-08-14T09:04:53.816Z,7.59
2022-08-14T09:05:44.755Z,6.69
2022-08-14T09:07:00.243Z,10.00
2022-08-14T09:07:45.262Z,7.80
2022-08-14T09:08:44.000Z,8.69
2022-08-14T09:09:53.649Z,7.69
2022-08-14T09:10:44.498Z,7.40
2022-08-14T09:11:43.230Z,11.10
2022-08-14T09:12:46.736Z,8.89
2022-08-14T09:13:43.728Z,6.09
2022-08-14T09:14:42.459Z,8.10
2022-08-14T09:15:42.407Z,8.69
2022-08-14T09:16:46.380Z,8.00
2022-08-14T09:17:42.795Z,6.69
2022-08-14T09:18:41.418Z,6.19
2022-08-14T09:19:41.156Z,6.30
2022-08-14T09:20:40.897Z,6.40
2022-08-14T09:21:40.637Z,7.90
2022-08-14T09:22:48.070Z,7.40
2022-08-14T09:24:26.508Z,8.19
2022-08-14T09:24:43.834Z,6.90
2022-08-14T09:25:59.878Z,7.19
2022-08-14T09:26:40.308Z,7.00
2022-08-14T09:27:39.752Z,5.59
2022-08-14T09:28:38.759Z,6.30
2022-08-14T09:29:38.484Z,6.59
2022-08-14T09:30:38.217Z,6.80
2022-08-14T09:31:43.026Z,8.60
2022-08-14T09:32:59.179Z,8.00
2022-08-14T09:33:55.782Z,6.80
2022-08-14T09:34:37.116Z,7.40
2022-08-14T09:35:36.832Z,5.59
2022-08-14T09:36:36.553Z,9.00
2022-08-14T09:37:36.271Z,5.19
2022-08-14T09:38:35.983Z,6.69
2022-08-14T09:39:35.735Z,4.90
2022-08-14T09:40:37.218Z,6.09
2022-08-14T09:42:20.151Z,6.90
2022-08-14T09:42:34.826Z,6.00
2022-08-14T09:43:34.537Z,5.30
2022-08-14T09:44:34.245Z,6.69
2022-08-14T09:45:40.217Z,5.50
2022-08-14T09:46:33.659Z,4.90
2022-08-14T09:47:33.359Z,5.30
2022-08-14T09:48:33.066Z,5.19
2022-08-14T09:49:32.773Z,5.00
2022-08-14T09:50:32.475Z,6.50
2022-08-14T09:51:32.996Z,7.30
2022-08-14T09:52:34.509Z,6.59
2022-08-14T09:53:34.261Z,4.90
2022-08-14T09:54:32.288Z,5.40
2022-08-14T09:55:36.783Z,6.40
2022-08-14T09:56:31.887Z,4.90
2022-08-14T09:57:30.389Z,5.19
2022-08-14T09:58:30.073Z,5.30
2022-08-14T09:59:33.450Z,5.19
2022-08-14T10:00:30.813Z,4.40
2022-08-14T10:01:29.165Z,5.40
2022-08-14T10:02:28.879Z,5.59
2022-08-14T10:03:28.771Z,4.59
2022-08-14T10:04:35.814Z,6.09
2022-08-14T10:05:27.941Z,5.90
2022-08-14T10:06:28.377Z,4.40
2022-08-14T10:07:27.338Z,5.00
2022-08-14T10:08:27.038Z,5.50
2022-08-14T10:09:26.729Z,5.09
2022-08-14T10:10:27.429Z,5.40
2022-08-14T10:11:31.030Z,4.30
2022-08-14T10:12:28.827Z,6.09
2022-08-14T10:13:25.494Z,6.00
2022-08-14T10:14:34.898Z,7.40
2022-08-14T10:15:24.881Z,5.40
2022-08-14T10:16:27.251Z,5.00
2022-08-14T10:17:24.257Z,5.50
2022-08-14T10:18:23.946Z,7.59
2022-08-14T10:19:23.631Z,4.69
2022-08-14T10:20:40.367Z,4.40
2022-08-14T10:21:23.001Z,4.40
2022-08-14T10:23:11.876Z,4.50
2022-08-14T10:23:23.228Z,4.69
2022-08-14T10:24:22.048Z,5.30
2022-08-14T10:25:22.676Z,5.90
2022-08-14T10:26:22.848Z,5.30
2022-08-14T10:27:21.080Z,6.19
2022-08-14T10:28:39.332Z,4.90
2022-08-14T10:29:23.672Z,4.40
2022-08-14T10:30:22.501Z,4.59
2022-08-14T10:31:19.923Z,4.69
2022-08-14T10:32:36.378Z,4.80
2022-08-14T10:33:19.108Z,4.30
2022-08-14T10:34:19.017Z,4.00
2022-08-14T10:35:18.433Z,7.09
2022-08-14T10:36:35.290Z,4.69
2022-08-14T10:37:17.756Z,4.50
2022-08-14T10:38:18.030Z,4.19
2022-08-14T10:39:17.196Z,4.80
2022-08-14T10:40:44.102Z,5.30
2022-08-14T10:41:16.416Z,5.00
2022-08-14T10:42:18.400Z,5.19
2022-08-14T10:43:15.685Z,5.40
2022-08-14T10:44:21.358Z,4.59
2022-08-14T10:45:16.004Z,4.30
2022-08-14T10:46:59.078Z,4.30
2022-08-14T10:47:39.597Z,4.69
2022-08-14T10:48:34.624Z,4.19
2022-08-14T10:49:13.584Z,4.90
2022-08-14T10:50:14.969Z,5.50
2022-08-14T10:51:12.872Z,4.19
2022-08-14T10:52:12.516Z,4.69
2022-08-14T10:53:12.175Z,4.09
2022-08-14T10:54:35.509Z,4.30
2022-08-14T10:55:12.697Z,4.69
2022-08-14T10:56:21.573Z,4.19
2022-08-14T10:57:10.734Z,6.19
2022-08-14T10:58:10.370Z,4.40
2022-08-14T10:59:10.944Z,4.09
2022-08-14T11:00:09.694Z,5.90
2022-08-14T11:01:09.288Z,5.09
2022-08-14T11:02:08.935Z,4.30
2022-08-14T11:03:08.579Z,4.90
2022-08-14T11:04:08.241Z,5.69
2022-08-14T11:05:07.942Z,4.50
2022-08-14T11:06:07.513Z,4.80
2022-08-14T11:07:07.155Z,6.90
2022-08-14T11:08:09.204Z,5.00
2022-08-14T11:09:06.435Z,4.19
2022-08-14T11:10:06.076Z,4.19
2022-08-14T11:11:05.714Z,4.50
2022-08-14T11:12:35.105Z,4.40
2022-08-14T11:13:04.992Z,5.40
2022-08-14T11:14:04.630Z,5.90
2022-08-14T11:15:04.269Z,4.80
2022-08-14T11:16:03.905Z,4.19
2022-08-14T11:17:03.546Z,5.69
2022-08-14T11:18:03.187Z,5.09
2022-08-14T11:19:02.828Z,5.30
2022-08-14T11:20:02.711Z,4.09
2022-08-14T11:21:02.260Z,4.40
2022-08-14T11:22:01.723Z,4.69
2022-08-14T11:23:01.353Z,5.30
2022-08-14T11:24:00.984Z,4.50
2022-08-14T11:25:00.615Z,4.90
2022-08-14T11:26:00.240Z,4.69
2022-08-14T11:26:59.860Z,4.09
2022-08-14T11:27:59.486Z,4.69
2022-08-14T11:28:59.109Z,4.59
2022-08-14T11:30:00.758Z,4.00
2022-08-14T11:30:58.361Z,4.19
2022-08-14T11:31:57.988Z,5.69
2022-08-14T11:32:57.609Z,6.19
2022-08-14T11:33:57.256Z,4.00
2022-08-14T11:34:56.857Z,4.90
2022-08-14T11:35:59.668Z,4.40
2022-08-14T11:37:04.416Z,5.50
2022-08-14T11:37:55.883Z,4.19
2022-08-14T11:38:55.340Z,4.80
2022-08-14T11:39:55.012Z,4.80
2022-08-14T11:40:54.609Z,4.59
2022-08-14T11:41:55.611Z,4.80
2022-08-14T11:42:58.418Z,4.30
2022-08-14T11:43:58.415Z,5.59
2022-08-14T11:44:53.830Z,4.69
2022-08-14T11:45:52.778Z,5.40
2022-08-14T11:46:52.417Z,5.69
2022-08-14T11:48:12.687Z,4.19
2022-08-14T11:49:03.104Z,5.59
2022-08-14T11:49:51.959Z,4.90
2022-08-14T11:50:50.966Z,4.30
2022-08-14T11:51:53.606Z,3.90
2022-08-14T11:52:50.742Z,5.90
2022-08-14T11:53:49.837Z,4.50
2022-08-14T11:54:49.459Z,6.50
2022-08-14T11:55:49.078Z,3.79
2022-08-14T11:56:48.694Z,3.59
2022-08-14T11:57:59.500Z,4.90
2022-08-14T11:58:48.926Z,4.00
2022-08-14T11:59:47.532Z,4.80
2022-08-14T12:00:47.141Z,4.00
2022-08-14T12:01:46.753Z,3.90
2022-08-14T12:03:03.175Z,5.19
2022-08-14T12:03:52.089Z,4.80
2022-08-14T12:04:45.612Z,5.59
2022-08-14T12:05:45.185Z,5.19
2022-08-14T12:06:44.785Z,4.80
2022-08-14T12:07:48.313Z,5.00
2022-08-14T12:08:43.988Z,4.09
2022-08-14T12:09:43.588Z,5.69
2022-08-14T12:10:43.523Z,5.59
2022-08-14T12:11:43.865Z,4.50
2022-08-14T12:12:42.377Z,5.50
2022-08-14T12:13:44.299Z,5.19
2022-08-14T12:14:44.293Z,4.80
2022-08-14T12:15:44.887Z,5.40
2022-08-14T12:16:40.747Z,4.40
2022-08-14T12:17:47.709Z,5.00
2022-08-14T12:18:39.955Z,5.30
2022-08-14T12:19:39.585Z,5.40
2022-08-14T12:20:45.551Z,7.09
2022-08-14T12:21:38.867Z,6.00
2022-08-14T12:22:40.120Z,5.59
2022-08-14T12:23:38.179Z,4.90
2022-08-14T12:24:40.121Z,6.30
2022-08-14T12:25:37.455Z,4.30
2022-08-14T12:26:40.606Z,4.59
2022-08-14T12:27:37.764Z,4.59
2022-08-14T12:28:59.241Z,5.19
2022-08-14T12:29:36.948Z,5.90
2022-08-14T12:30:39.672Z,6.09
2022-08-14T12:31:36.355Z,6.30
2022-08-14T12:32:34.781Z,4.09
2022-08-14T12:33:34.384Z,4.09
2022-08-14T12:34:33.998Z,5.59
2022-08-14T12:35:33.627Z,5.09
2022-08-14T12:36:33.264Z,4.80
2022-08-14T12:37:32.889Z,4.90
2022-08-14T12:38:32.506Z,6.30
2022-08-14T12:39:39.742Z,4.30
2022-08-14T12:40:32.738Z,5.40
2022-08-14T12:41:34.421Z,4.90
2022-08-14T12:42:34.520Z,4.09
2022-08-14T12:43:30.536Z,4.09
2022-08-14T12:44:30.131Z,4.59
2022-08-14T12:45:29.717Z,7.09
2022-08-14T12:46:29.335Z,5.30
2022-08-14T12:47:28.886Z,5.40
2022-08-14T12:48:32.290Z,4.80
2022-08-14T12:49:28.043Z,4.30
2022-08-14T12:50:27.616Z,5.50
2022-08-14T12:51:27.535Z,4.59
2022-08-14T12:52:36.102Z,6.90
2022-08-14T12:53:26.333Z,4.09
2022-08-14T12:54:27.988Z,5.50
2022-08-14T12:55:32.646Z,4.59
2022-08-14T12:56:33.095Z,3.90
2022-08-14T12:57:24.715Z,5.69
2022-08-14T12:58:29.290Z,3.59
2022-08-14T12:59:23.968Z,4.19
2022-08-14T13:00:24.284Z,6.00
2022-08-14T13:01:23.316Z,4.09
2022-08-14T13:02:25.971Z,4.19
2022-08-14T13:03:22.361Z,5.09
2022-08-14T13:04:22.902Z,3.90